Time;durP1;ratioP1;P1;durP2;ratioP2;P2;SDS_P1;SDS_P2;PMS_P1;PMS_P2;Temp;Humidity;BMP_temperature;BMP_pressure;BME280_temperature;BME280_humidity;BME280_pressure;Samples;Min_cycle;Max_cycle;Signal;HPM_P1;HPM_P2
2022/03/02 00:02:24;;;;;;;5.93;2.90;;;1.70;77.10;;;;;;4995329;28;20283;-71
2022/03/02 00:04:50;;;;;;;3.27;3.03;;;1.70;77.30;;;;;;4998778;28;20639;-71
2022/03/02 00:07:16;;;;;;;5.57;3.20;;;1.70;77.40;;;;;;4990565;28;20271;-74
2022/03/02 00:09:42;;;;;;;2.93;2.77;;;1.60;77.10;;;;;;4996855;28;20188;-73
2022/03/02 00:12:08;;;;;;;5.33;3.93;;;1.60;77.00;;;;;;4997886;28;20737;-71
2022/03/02 00:14:33;;;;;;;8.90;4.73;;;1.50;77.00;;;;;;4994851;28;20200;-71
2022/03/02 00:16:59;;;;;;;4.07;3.13;;;1.30;77.50;;;;;;4998666;28;20195;-71
2022/03/02 00:19:25;;;;;;;4.20;3.80;;;1.20;77.40;;;;;;4996087;28;20271;-71
2022/03/02 00:21:51;;;;;;;4.47;3.10;;;1.10;77.90;;;;;;4992903;28;20184;-70
2022/03/02 00:24:17;;;;;;;3.97;3.50;;;0.90;78.00;;;;;;4997828;28;20190;-70
2022/03/02 00:26:43;;;;;;;5.57;3.73;;;0.80;77.90;;;;;;4994919;28;20181;-71
2022/03/02 00:29:09;;;;;;;9.97;3.27;;;0.70;78.10;;;;;;4994567;28;20302;-70
2022/03/02 00:31:34;;;;;;;3.67;3.37;;;0.60;78.10;;;;;;4995913;28;20802;-71
2022/03/02 00:34:00;;;;;;;5.27;2.30;;;0.60;78.20;;;;;;4997560;28;20579;-70
2022/03/02 00:36:26;;;;;;;2.17;2.07;;;0.60;78.70;;;;;;4992735;28;20690;-72
2022/03/02 00:38:52;;;;;;;2.90;2.50;;;0.50;78.80;;;;;;4997454;28;20211;-72
2022/03/02 00:41:17;;;;;;;3.93;2.70;;;0.50;78.70;;;;;;4997288;28;20302;-72
2022/03/02 00:43:43;;;;;;;4.10;3.43;;;0.40;78.80;;;;;;4991838;28;20193;-72
2022/03/02 00:46:09;;;;;;;1.87;1.50;;;0.30;79.00;;;;;;4995965;28;20198;-71
2022/03/02 00:48:35;;;;;;;2.33;1.80;;;0.30;79.20;;;;;;4998628;28;20255;-72
2022/03/02 00:51:01;;;;;;;3.17;2.57;;;0.30;79.20;;;;;;4999945;28;20619;-72
2022/03/02 00:53:27;;;;;;;3.03;2.63;;;0.20;79.10;;;;;;4997880;28;20758;-72
2022/03/02 00:55:53;;;;;;;1.93;1.83;;;0.20;79.00;;;;;;4997094;28;20192;-72
2022/03/02 00:58:18;;;;;;;3.80;2.83;;;0.10;79.20;;;;;;4996149;28;20294;-72
2022/03/02 01:00:44;;;;;;;2.30;2.10;;;0.10;79.30;;;;;;5000334;28;20264;-72
2022/03/02 01:03:10;;;;;;;1.67;1.60;;;0.00;79.30;;;;;;4996109;28;20209;-72
2022/03/02 01:05:35;;;;;;;3.17;2.87;;;0.00;79.60;;;;;;5000779;28;20676;-72
2022/03/02 01:08:01;;;;;;;5.03;3.47;;;0.00;80.00;;;;;;4997496;28;20582;-74
2022/03/02 01:10:27;;;;;;;3.33;2.00;;;-0.10;80.30;;;;;;4994492;28;20664;-72
2022/03/02 01:12:52;;;;;;;3.23;2.93;;;-0.10;80.50;;;;;;4998086;28;20687;-73
2022/03/02 01:15:18;;;;;;;3.03;2.83;;;-0.10;80.60;;;;;;4997550;28;20245;-72
2022/03/02 01:17:44;;;;;;;2.90;2.73;;;-0.20;80.80;;;;;;5000990;28;20196;-73
2022/03/02 01:20:11;;;;;;;7.43;2.37;;;-0.20;81.00;;;;;;5000792;28;21019;-73
2022/03/02 01:22:38;;;;;;;2.70;2.50;;;-0.20;81.00;;;;;;4998934;28;20296;-72
2022/03/02 01:25:06;;;;;;;2.20;2.20;;;-0.20;81.00;;;;;;4997040;28;20189;-72
2022/03/02 01:27:31;;;;;;;2.17;2.07;;;-0.30;81.30;;;;;;4998542;28;20201;-72
2022/03/02 01:29:57;;;;;;;3.00;2.80;;;-0.30;81.40;;;;;;5000131;28;20190;-72
2022/03/02 01:32:24;;;;;;;3.00;2.80;;;-0.30;81.60;;;;;;4999408;28;20193;-72
2022/03/02 01:34:49;;;;;;;2.23;2.10;;;-0.40;81.50;;;;;;4996568;28;20193;-72
2022/03/02 01:37:16;;;;;;;6.13;2.20;;;-0.40;81.90;;;;;;5000776;28;20567;-71
2022/03/02 01:39:42;;;;;;;2.47;2.23;;;-0.40;81.90;;;;;;4996658;28;20265;-72
2022/03/02 01:42:08;;;;;;;6.80;3.00;;;-0.40;82.10;;;;;;4998443;28;20737;-73
2022/03/02 01:44:35;;;;;;;2.33;2.23;;;-0.50;82.30;;;;;;4998485;28;20193;-72
2022/03/02 01:47:02;;;;;;;4.20;2.60;;;-0.50;82.30;;;;;;4999182;28;20193;-72
2022/03/02 01:49:28;;;;;;;3.93;3.10;;;-0.50;82.60;;;;;;4993858;28;20994;-72
2022/03/02 01:51:55;;;;;;;3.23;2.03;;;-0.60;82.80;;;;;;4997646;28;20201;-72
2022/03/02 01:54:21;;;;;;;7.00;2.43;;;-0.60;82.90;;;;;;4995874;28;20659;-72
2022/03/02 01:56:48;;;;;;;2.20;2.10;;;-0.60;83.10;;;;;;4998430;28;20608;-71
2022/03/02 01:59:14;;;;;;;2.57;2.37;;;-0.60;83.10;;;;;;4998052;28;20200;-73
2022/03/02 02:01:39;;;;;;;2.43;2.37;;;-0.70;83.30;;;;;;4996048;28;20189;-73
2022/03/02 02:04:05;;;;;;;4.70;2.83;;;-0.70;83.40;;;;;;4998852;28;20215;-72
2022/03/02 02:06:31;;;;;;;3.77;3.00;;;-0.80;83.40;;;;;;4995667;28;20184;-72
2022/03/02 02:09:02;;;;;;;2.57;2.30;;;-0.80;83.40;;;;;;4996374;28;20712;-73
2022/03/02 02:11:30;;;;;;;1.23;1.23;;;-0.80;83.20;;;;;;4999841;28;20183;-73
2022/03/02 02:13:56;;;;;;;1.97;1.40;;;-0.80;83.00;;;;;;4993696;28;21246;-72
2022/03/02 02:16:22;;;;;;;2.40;2.30;;;-0.80;83.00;;;;;;4995205;28;20192;-72
2022/03/02 02:18:50;;;;;;;1.93;1.83;;;-0.90;82.90;;;;;;4994186;28;22146;-73
2022/03/02 02:21:18;;;;;;;3.33;2.00;;;-0.90;83.00;;;;;;4994376;28;20193;-72
2022/03/02 02:23:44;;;;;;;1.10;0.93;;;-0.90;83.10;;;;;;4994830;28;20672;-73
2022/03/02 02:26:09;;;;;;;1.70;1.60;;;-0.90;83.10;;;;;;4996820;28;20181;-72
2022/03/02 02:28:35;;;;;;;2.87;2.20;;;-0.90;83.00;;;;;;4994742;28;21067;-72
2022/03/02 02:31:02;;;;;;;1.93;1.83;;;-0.90;82.80;;;;;;4997542;28;20185;-73
2022/03/02 02:33:29;;;;;;;2.00;1.63;;;-1.00;82.70;;;;;;5000919;28;20186;-72
2022/03/02 02:35:56;;;;;;;1.80;1.70;;;-1.00;82.70;;;;;;4995299;28;20185;-71
2022/03/02 02:38:22;;;;;;;5.17;1.73;;;-1.00;82.70;;;;;;4995885;28;20273;-72
2022/03/02 02:40:49;;;;;;;1.33;1.27;;;-1.00;82.70;;;;;;4993150;28;20208;-72
2022/03/02 02:43:16;;;;;;;1.20;1.20;;;-1.00;82.60;;;;;;4997754;28;20663;-71
2022/03/02 02:45:42;;;;;;;1.63;1.53;;;-1.10;82.50;;;;;;5000862;28;20201;-70
2022/03/02 02:48:08;;;;;;;1.70;1.70;;;-1.10;82.50;;;;;;4992562;28;20213;-71
2022/03/02 02:50:34;;;;;;;1.00;1.00;;;-1.10;82.20;;;;;;4998529;28;20185;-71
2022/03/02 02:53:05;;;;;;;2.10;1.37;;;-1.20;82.20;;;;;;4992177;28;20189;-71
2022/03/02 02:55:31;;;;;;;1.83;1.63;;;-1.20;82.20;;;;;;4991511;28;20214;-71
2022/03/02 02:57:57;;;;;;;2.33;1.73;;;-1.20;82.20;;;;;;4997785;28;20192;-71
2022/03/02 03:00:26;;;;;;;1.03;1.03;;;-1.20;82.20;;;;;;4994336;28;20192;-71
2022/03/02 03:02:53;;;;;;;1.03;1.03;;;-1.20;82.30;;;;;;4996391;28;20680;-71
2022/03/02 03:05:21;;;;;;;1.53;1.53;;;-1.30;82.40;;;;;;4995623;28;20196;-72
2022/03/02 03:07:48;;;;;;;6.80;1.53;;;-1.30;82.30;;;;;;4995786;28;20727;-71
2022/03/02 03:10:15;;;;;;;1.83;1.23;;;-1.30;82.40;;;;;;4995135;28;20220;-71
2022/03/02 03:12:45;;;;;;;1.27;1.27;;;-1.30;82.40;;;;;;4998930;28;20199;-72
2022/03/02 03:15:12;;;;;;;2.67;1.33;;;-1.30;82.60;;;;;;4995541;28;20188;-70
2022/03/02 03:17:39;;;;;;;1.70;1.37;;;-1.40;82.60;;;;;;4992761;28;20634;-72
2022/03/02 03:20:07;;;;;;;2.87;1.67;;;-1.40;82.50;;;;;;4990604;28;20649;-73
2022/03/02 03:22:33;;;;;;;1.10;1.10;;;-1.40;82.70;;;;;;4993802;28;20192;-72
2022/03/02 03:24:59;;;;;;;1.03;1.03;;;-1.40;82.60;;;;;;4994322;28;20837;-73
2022/03/02 03:27:26;;;;;;;1.90;1.30;;;-1.40;82.90;;;;;;4995128;28;20976;-72
2022/03/02 03:29:52;;;;;;;1.67;1.00;;;-1.40;83.10;;;;;;4993277;28;20264;-73
2022/03/02 03:32:18;;;;;;;1.40;1.10;;;-1.40;83.20;;;;;;4996035;28;20617;-73
2022/03/02 03:34:43;;;;;;;2.47;1.30;;;-1.40;83.40;;;;;;4990427;28;20271;-72
2022/03/02 03:37:10;;;;;;;1.40;1.30;;;-1.30;83.60;;;;;;4997801;28;20189;-73
2022/03/02 03:39:36;;;;;;;3.43;1.53;;;-1.30;83.60;;;;;;4991729;28;20276;-73
2022/03/02 03:42:01;;;;;;;0.60;0.60;;;-1.30;83.80;;;;;;4994107;28;20759;-72
2022/03/02 03:44:27;;;;;;;0.90;0.90;;;-1.20;83.80;;;;;;4994653;28;21517;-73
2022/03/02 03:46:54;;;;;;;1.00;1.00;;;-1.20;83.70;;;;;;4994457;28;20635;-73
2022/03/02 03:49:19;;;;;;;1.13;1.07;;;-1.10;83.90;;;;;;4990962;28;20209;-73
2022/03/02 03:51:45;;;;;;;1.73;1.63;;;-1.10;83.80;;;;;;4996198;28;20243;-73
2022/03/02 03:54:11;;;;;;;1.63;1.53;;;-1.00;84.00;;;;;;4995694;28;20185;-71
2022/03/02 03:56:37;;;;;;;1.13;1.03;;;-1.00;84.00;;;;;;4996882;28;20549;-71
2022/03/02 03:59:03;;;;;;;1.70;1.53;;;-0.90;84.00;;;;;;4991009;28;20199;-72
2022/03/02 04:01:29;;;;;;;0.77;0.77;;;-0.80;83.90;;;;;;4996923;28;20553;-72
2022/03/02 04:03:55;;;;;;;2.83;1.17;;;-0.80;84.10;;;;;;4995607;28;20239;-72
2022/03/02 04:06:22;;;;;;;1.63;1.53;;;-0.80;84.10;;;;;;4990181;28;20553;-71
2022/03/02 04:08:47;;;;;;;1.53;1.47;;;-0.70;84.00;;;;;;4990038;28;20620;-72
2022/03/02 04:11:13;;;;;;;1.03;1.00;;;-0.70;83.90;;;;;;4998263;28;20207;-73
2022/03/02 04:13:39;;;;;;;1.03;1.00;;;-0.60;83.80;;;;;;4996373;28;20581;-72
2022/03/02 04:16:05;;;;;;;0.73;0.73;;;-0.60;83.70;;;;;;4995364;28;20188;-72
2022/03/02 04:18:34;;;;;;;2.43;1.53;;;-0.50;83.70;;;;;;4997056;28;20527;-73
2022/03/02 04:21:00;;;;;;;8.43;1.87;;;-0.50;83.40;;;;;;4995317;28;20184;-73
2022/03/02 04:23:26;;;;;;;1.20;1.20;;;-0.50;83.40;;;;;;5000988;28;20226;-73
2022/03/02 04:25:52;;;;;;;1.73;1.63;;;-0.50;83.50;;;;;;4999771;28;20185;-72
2022/03/02 04:28:18;;;;;;;1.00;1.00;;;-0.50;83.60;;;;;;5003718;28;20733;-73
2022/03/02 04:30:44;;;;;;;1.33;1.23;;;-0.50;83.60;;;;;;5002726;28;20189;-72
2022/03/02 04:33:10;;;;;;;1.87;1.77;;;-0.50;83.70;;;;;;4996981;28;20668;-73
2022/03/02 04:35:36;;;;;;;2.63;1.90;;;-0.50;83.80;;;;;;4999464;28;20211;-72
2022/03/02 04:38:03;;;;;;;2.60;1.07;;;-0.60;83.90;;;;;;4999179;28;20190;-72
2022/03/02 04:40:29;;;;;;;0.70;0.70;;;-0.60;84.00;;;;;;4998713;28;20196;-73
2022/03/02 04:42:55;;;;;;;3.40;1.43;;;-0.60;84.20;;;;;;4998918;28;20541;-72
2022/03/02 04:45:25;;;;;;;1.83;1.73;;;-0.50;84.20;;;;;;4998796;28;20196;-72
2022/03/02 04:47:51;;;;;;;1.03;1.03;;;-0.50;84.20;;;;;;4998406;28;20213;-73
2022/03/02 04:50:19;;;;;;;2.90;1.67;;;-0.50;84.40;;;;;;4996601;28;20252;-72
2022/03/02 04:52:45;;;;;;;2.43;1.47;;;-0.50;84.60;;;;;;4994838;28;20219;-73
2022/03/02 04:55:12;;;;;;;1.30;1.20;;;-0.50;84.80;;;;;;4997270;28;20185;-72
2022/03/02 04:58:04;;;;;;;1.10;1.10;;;-0.50;85.00;;;;;;4997243;28;20192;-72
2022/03/02 05:00:33;;;;;;;2.00;1.30;;;-0.50;84.70;;;;;;4993984;28;20267;-72
2022/03/02 05:03:01;;;;;;;0.87;0.87;;;-0.50;84.80;;;;;;4996369;28;20995;-72
2022/03/02 05:05:28;;;;;;;1.50;1.47;;;-0.40;84.90;;;;;;4996828;28;20189;-72
2022/03/02 05:07:54;;;;;;;2.23;1.10;;;-0.40;84.80;;;;;;4997659;28;20291;-72
2022/03/02 05:10:22;;;;;;;1.03;0.97;;;-0.40;84.90;;;;;;5000286;28;20679;-72
2022/03/02 05:12:48;;;;;;;2.10;1.70;;;-0.40;85.10;;;;;;4998388;28;20173;-72
2022/03/02 05:15:15;;;;;;;3.20;1.30;;;-0.40;85.30;;;;;;4992973;28;20188;-72
2022/03/02 05:17:42;;;;;;;1.03;1.03;;;-0.40;85.40;;;;;;4999557;28;20200;-72
2022/03/02 05:20:10;;;;;;;1.37;1.27;;;-0.40;85.60;;;;;;5000560;28;20594;-72
2022/03/02 05:22:36;;;;;;;1.97;1.87;;;-0.40;85.90;;;;;;4997457;28;20213;-72
2022/03/02 05:25:03;;;;;;;1.97;1.03;;;-0.50;86.30;;;;;;4996184;28;20212;-72
2022/03/02 05:27:29;;;;;;;1.17;1.17;;;-0.40;86.40;;;;;;4994128;28;20193;-71
2022/03/02 05:29:54;;;;;;;1.87;1.67;;;-0.40;86.50;;;;;;4998123;28;20186;-72
2022/03/02 05:32:20;;;;;;;1.80;1.70;;;-0.40;86.60;;;;;;4998703;28;20235;-72
2022/03/02 05:34:46;;;;;;;1.67;1.57;;;-0.40;86.80;;;;;;4997603;28;20217;-72
2022/03/02 05:37:12;;;;;;;1.60;1.53;;;-0.40;87.10;;;;;;4994326;28;20189;-72
2022/03/02 05:39:38;;;;;;;1.70;1.70;;;-0.40;87.40;;;;;;4997359;28;20208;-72
2022/03/02 05:42:04;;;;;;;4.30;2.43;;;-0.40;87.60;;;;;;4991669;28;20193;-72
2022/03/02 05:44:29;;;;;;;1.47;1.13;;;-0.40;87.70;;;;;;4998811;28;20181;-72
2022/03/02 05:46:55;;;;;;;2.07;1.83;;;-0.30;87.80;;;;;;4994012;28;20204;-72
2022/03/02 05:49:21;;;;;;;1.80;1.57;;;-0.30;87.90;;;;;;4994510;28;20233;-72
2022/03/02 05:51:47;;;;;;;1.80;1.70;;;-0.30;87.80;;;;;;5000447;28;20196;-72
2022/03/02 05:54:13;;;;;;;3.77;1.50;;;-0.30;88.00;;;;;;4996670;28;20193;-74
2022/03/02 05:56:40;;;;;;;1.70;1.47;;;-0.30;88.40;;;;;;4995595;28;20185;-74
2022/03/02 05:59:07;;;;;;;1.10;1.10;;;-0.30;88.40;;;;;;4997267;28;20641;-73
2022/03/02 06:01:34;;;;;;;2.53;1.17;;;-0.30;88.40;;;;;;4997657;28;20235;-72
2022/03/02 06:04:01;;;;;;;1.00;1.00;;;-0.30;88.20;;;;;;4995768;28;20219;-72
2022/03/02 06:06:29;;;;;;;1.67;1.57;;;-0.20;88.20;;;;;;4999053;28;20177;-72
2022/03/02 06:08:55;;;;;;;1.90;1.67;;;-0.10;88.00;;;;;;4999967;28;20267;-72
2022/03/02 06:11:22;;;;;;;2.53;1.60;;;-0.10;87.90;;;;;;4994371;28;20200;-73
2022/03/02 06:13:48;;;;;;;2.27;1.87;;;-0.10;88.00;;;;;;4993996;28;20623;-73
2022/03/02 06:16:14;;;;;;;2.67;2.07;;;-0.10;88.00;;;;;;4999553;28;20209;-73
2022/03/02 06:18:40;;;;;;;3.30;2.10;;;-0.10;87.90;;;;;;4994386;28;20190;-73
2022/03/02 06:21:07;;;;;;;2.20;1.90;;;0.00;87.90;;;;;;4998595;28;20646;-73
2022/03/02 06:23:33;;;;;;;2.20;1.77;;;0.00;87.70;;;;;;4994869;28;20188;-73
2022/03/02 06:25:59;;;;;;;3.30;2.10;;;0.10;87.50;;;;;;5001514;28;20725;-72
2022/03/02 06:28:26;;;;;;;3.20;1.40;;;0.10;87.30;;;;;;4996121;28;20284;-72
2022/03/02 06:30:52;;;;;;;2.03;1.93;;;0.10;87.40;;;;;;4994472;28;20186;-73
2022/03/02 06:33:19;;;;;;;2.13;1.77;;;0.10;87.30;;;;;;4997986;28;20274;-72
2022/03/02 06:35:49;;;;;;;2.03;1.80;;;0.10;87.40;;;;;;4996136;28;20194;-72
2022/03/02 06:38:15;;;;;;;2.40;1.93;;;0.10;87.40;;;;;;4997424;28;20324;-73
2022/03/02 06:40:54;;;;;;;3.20;2.40;;;0.20;87.30;;;;;;4996271;28;20186;-73
2022/03/02 06:43:24;;;;;;;4.37;1.47;;;0.20;87.20;;;;;;4999392;28;20300;-72
2022/03/02 06:46:07;;;;;;;2.57;2.40;;;0.20;87.10;;;;;;4996140;28;20244;-74
2022/03/02 06:48:42;;;;;;;1.13;1.13;;;0.20;87.10;;;;;;4994274;28;20220;-73
2022/03/02 06:51:13;;;;;;;2.17;1.93;;;0.30;87.00;;;;;;4995667;28;20577;-73
2022/03/02 06:53:44;;;;;;;4.50;1.93;;;0.30;86.90;;;;;;4997622;28;20280;-73
2022/03/02 06:56:10;;;;;;;1.87;1.73;;;0.40;86.80;;;;;;4997883;28;20726;-73
2022/03/02 06:58:41;;;;;;;1.67;1.67;;;0.40;86.50;;;;;;4991992;28;20214;-74
2022/03/02 07:01:13;;;;;;;4.73;2.30;;;0.50;86.10;;;;;;4994058;28;20217;-74
2022/03/02 07:03:50;;;;;;;2.50;1.90;;;0.50;86.10;;;;;;4993366;28;20964;-74
2022/03/02 07:06:17;;;;;;;3.63;2.07;;;0.50;86.00;;;;;;4993997;28;20185;-73
2022/03/02 07:08:48;;;;;;;2.60;2.40;;;0.50;86.00;;;;;;5014558;28;20225;-73
2022/03/02 07:11:17;;;;;;;2.13;2.03;;;0.50;86.00;;;;;;4993493;28;20200;-73
2022/03/02 07:13:47;;;;;;;2.37;2.23;;;0.60;85.80;;;;;;4992714;28;20181;-74
2022/03/02 07:16:18;;;;;;;2.20;1.77;;;0.60;85.80;;;;;;4995747;28;20272;-73
2022/03/02 07:18:44;;;;;;;4.33;2.50;;;0.60;85.80;;;;;;4995707;28;20189;-74
2022/03/02 07:21:13;;;;;;;2.00;1.90;;;0.60;85.80;;;;;;4998168;28;20185;-74
2022/03/02 07:23:54;;;;;;;1.97;1.50;;;0.60;85.60;;;;;;4992856;28;20216;-73
2022/03/02 07:26:21;;;;;;;2.20;1.90;;;0.60;85.50;;;;;;4991659;28;20363;-73
2022/03/02 07:28:48;;;;;;;2.53;1.67;;;0.60;85.30;;;;;;4992802;28;20801;-73
2022/03/02 07:31:14;;;;;;;4.37;1.87;;;0.70;85.40;;;;;;4992817;28;20540;-74
2022/03/02 07:33:42;;;;;;;4.00;1.87;;;0.70;85.40;;;;;;4992589;28;20660;-73
2022/03/02 07:36:12;;;;;;;1.57;1.47;;;0.80;85.20;;;;;;4990360;28;20284;-74
2022/03/02 07:38:38;;;;;;;2.37;1.57;;;0.80;84.90;;;;;;4994182;28;20185;-74
2022/03/02 07:41:09;;;;;;;2.17;2.07;;;0.90;84.80;;;;;;4997293;28;20915;-74
2022/03/02 07:43:39;;;;;;;1.90;1.73;;;0.90;84.90;;;;;;4994921;28;20192;-74
2022/03/02 07:46:07;;;;;;;2.17;1.83;;;0.90;85.00;;;;;;4994654;28;20193;-73
2022/03/02 07:48:34;;;;;;;3.10;2.60;;;1.00;84.90;;;;;;4991091;28;20220;-73
2022/03/02 07:51:02;;;;;;;2.67;2.47;;;1.00;84.90;;;;;;4997695;28;20239;-74
2022/03/02 07:53:35;;;;;;;2.90;2.63;;;1.00;84.80;;;;;;4992064;28;20239;-74
2022/03/02 07:56:01;;;;;;;3.83;3.47;;;1.00;85.00;;;;;;4994756;28;20203;-74
2022/03/02 07:58:28;;;;;;;2.43;2.30;;;1.00;84.80;;;;;;4988220;28;20215;-74
2022/03/02 08:00:54;;;;;;;2.03;1.93;;;1.10;85.00;;;;;;4992683;28;20213;-75
2022/03/02 08:03:25;;;;;;;6.13;3.53;;;1.10;85.00;;;;;;4995751;28;20185;-75
2022/03/02 08:05:51;;;;;;;4.50;3.30;;;1.20;84.90;;;;;;4990787;28;20345;-74
2022/03/02 08:08:17;;;;;;;4.20;2.60;;;1.20;84.60;;;;;;4994967;28;20259;-73
2022/03/02 08:10:44;;;;;;;4.30;3.63;;;1.20;84.70;;;;;;4996933;28;20296;-74
2022/03/02 08:13:14;;;;;;;4.87;2.57;;;1.30;84.70;;;;;;4992790;28;20200;-74
2022/03/02 08:15:41;;;;;;;2.67;2.47;;;1.30;84.70;;;;;;4993120;28;20256;-73
2022/03/02 08:18:06;;;;;;;5.03;3.47;;;1.40;84.40;;;;;;4997563;28;20632;-73
2022/03/02 08:20:35;;;;;;;2.37;2.07;;;1.40;84.20;;;;;;4995950;28;20181;-74
2022/03/02 08:23:05;;;;;;;3.20;3.00;;;1.40;84.10;;;;;;4994602;28;20185;-73
2022/03/02 08:25:32;;;;;;;5.00;3.30;;;1.30;84.30;;;;;;4996740;28;20238;-73
2022/03/02 08:28:01;;;;;;;4.93;2.60;;;1.30;84.50;;;;;;4993412;28;20209;-73
2022/03/02 08:30:32;;;;;;;4.50;2.33;;;1.30;84.50;;;;;;4995176;28;20227;-72
2022/03/02 08:33:00;;;;;;;6.23;3.23;;;1.30;84.60;;;;;;4991565;28;20606;-74
2022/03/02 08:35:26;;;;;;;4.43;3.17;;;1.30;84.70;;;;;;4995053;28;20577;-74
2022/03/02 08:37:52;;;;;;;5.67;3.73;;;1.30;84.70;;;;;;4994335;28;20181;-74
2022/03/02 08:40:17;;;;;;;6.17;4.10;;;1.30;84.80;;;;;;4998255;28;20614;-72
2022/03/02 08:42:44;;;;;;;2.97;2.77;;;1.20;84.70;;;;;;4995940;28;20272;-73
2022/03/02 08:45:10;;;;;;;3.23;3.00;;;1.30;85.00;;;;;;4995396;28;20182;-73
2022/03/02 08:47:37;;;;;;;5.50;3.37;;;1.30;84.60;;;;;;4997127;28;20683;-74
2022/03/02 08:50:05;;;;;;;3.77;3.53;;;1.40;84.50;;;;;;4990060;28;20724;-73
2022/03/02 08:52:33;;;;;;;5.70;3.30;;;1.50;84.20;;;;;;4991313;28;20238;-73
2022/03/02 08:55:04;;;;;;;3.30;3.00;;;1.50;83.70;;;;;;4993453;28;20186;-73
2022/03/02 08:57:32;;;;;;;7.03;3.53;;;1.60;83.20;;;;;;4994224;28;20181;-74
2022/03/02 08:59:59;;;;;;;3.53;2.83;;;1.60;83.30;;;;;;4995941;28;20181;-73
2022/03/02 09:02:28;;;;;;;2.70;2.50;;;1.70;83.20;;;;;;5011165;28;20186;-73
2022/03/02 09:04:58;;;;;;;4.20;3.80;;;1.80;82.50;;;;;;4995459;28;20223;-74
2022/03/02 09:07:24;;;;;;;3.87;3.57;;;1.80;82.70;;;;;;4994947;28;20290;-73
2022/03/02 09:09:50;;;;;;;5.50;3.93;;;1.90;82.60;;;;;;4994589;28;20385;-73
2022/03/02 09:12:15;;;;;;;3.57;3.27;;;1.90;82.40;;;;;;4996032;28;20699;-73
2022/03/02 09:14:42;;;;;;;4.00;3.67;;;2.00;82.30;;;;;;4997899;28;20984;-73
2022/03/02 09:17:08;;;;;;;3.47;2.93;;;2.10;82.30;;;;;;4997649;28;20186;-73
2022/03/02 09:19:35;;;;;;;5.23;3.87;;;2.20;82.20;;;;;;4997955;28;20614;-72
2022/03/02 09:22:03;;;;;;;3.80;3.37;;;2.50;81.90;;;;;;4998478;28;20234;-73
2022/03/02 09:24:30;;;;;;;6.87;3.87;;;2.90;81.50;;;;;;4995196;28;20898;-72
2022/03/02 09:27:01;;;;;;;5.97;4.03;;;3.50;81.00;;;;;;4994568;28;20225;-73
2022/03/02 09:29:31;;;;;;;7.73;4.77;;;4.10;79.00;;;;;;4994803;28;20988;-73
2022/03/02 09:31:58;;;;;;;6.07;4.80;;;4.60;77.40;;;;;;4999000;28;20320;-73
2022/03/02 09:34:29;;;;;;;5.57;4.47;;;5.10;76.70;;;;;;4996593;28;20274;-73
2022/03/02 09:36:57;;;;;;;6.90;4.77;;;5.50;75.10;;;;;;4999162;28;20197;-72
2022/03/02 09:39:23;;;;;;;5.83;4.57;;;5.70;73.00;;;;;;4997081;28;20224;-73
2022/03/02 09:42:14;;;;;;;8.70;5.33;;;5.70;72.80;;;;;;4992159;28;21047;-72
2022/03/02 09:44:45;;;;;;;8.80;5.43;;;6.00;73.30;;;;;;4996359;28;20744;-74
2022/03/02 09:47:20;;;;;;;10.53;5.50;;;6.60;72.40;;;;;;4995560;28;20605;-73
2022/03/02 09:49:50;;;;;;;9.10;5.00;;;7.50;72.20;;;;;;5002240;28;20266;-73
2022/03/02 09:52:21;;;;;;;10.00;4.67;;;8.40;68.80;;;;;;4996163;28;20189;-73
2022/03/02 09:54:52;;;;;;;6.73;5.50;;;9.00;67.10;;;;;;4993242;28;20672;-73
2022/03/02 09:57:20;;;;;;;6.37;5.23;;;9.40;66.00;;;;;;4994751;28;20197;-73
2022/03/02 09:59:55;;;;;;;11.43;6.13;;;10.10;66.20;;;;;;4996442;28;20654;-73
2022/03/02 10:02:42;;;;;;;7.47;5.57;;;10.70;63.20;;;;;;4998314;28;20193;-73
2022/03/02 10:05:15;;;;;;;15.20;7.00;;;10.80;61.80;;;;;;4998309;28;20239;-73
2022/03/02 10:07:46;;;;;;;6.93;5.50;;;10.90;61.40;;;;;;4992026;28;20204;-73
2022/03/02 10:10:15;;;;;;;12.30;6.50;;;11.00;61.70;;;;;;4995645;28;20317;-73
2022/03/02 10:12:41;;;;;;;6.60;5.07;;;11.10;59.10;;;;;;4995824;28;20705;-73
2022/03/02 10:15:14;;;;;;;11.93;6.23;;;11.30;59.90;;;;;;4995822;28;20177;-73
2022/03/02 10:17:44;;;;;;;7.53;5.70;;;11.50;57.60;;;;;;4995009;28;20689;-73
2022/03/02 10:20:13;;;;;;;9.73;5.63;;;11.00;56.90;;;;;;4993869;28;20192;-73
2022/03/02 10:23:30;;;;;;;8.13;5.55;;;10.80;58.60;;;;;;4992901;28;20193;-73
2022/03/02 10:26:15;;;;;;;7.15;5.07;;;11.00;59.50;;;;;;4995287;28;20194;-73
2022/03/02 10:29:11;;;;;;;7.40;5.78;;;11.40;58.30;;;;;;4997844;28;20882;-73
2022/03/02 10:31:45;;;;;;;5.25;4.75;;;11.60;57.90;;;;;;4992477;28;20195;-73
2022/03/02 10:34:26;;;;;;;7.22;5.25;;;11.50;55.80;;;;;;4995645;28;20192;-73
2022/03/02 10:37:08;;;;;;;6.05;5.32;;;11.20;56.90;;;;;;4999577;28;20185;-73
2022/03/02 10:39:51;;;;;;;7.82;6.47;;;10.90;57.90;;;;;;5000827;28;20190;-73
2022/03/02 10:42:22;;;;;;;8.68;5.22;;;10.60;58.20;;;;;;4998479;28;20178;-73
2022/03/02 10:45:11;;;;;;;11.20;6.22;;;10.40;58.50;;;;;;4996872;28;20196;-73
2022/03/02 10:48:14;;;;;;;6.13;5.53;;;10.40;58.80;;;;;;4994788;28;20205;-73
2022/03/02 10:50:43;;;;;;;6.80;5.28;;;10.50;59.30;;;;;;4981242;28;20216;-72
2022/03/02 10:53:15;;;;;;;7.72;5.65;;;11.00;59.50;;;;;;4982401;28;20648;-73
2022/03/02 10:55:43;;;;;;;6.00;5.22;;;11.60;57.80;;;;;;4965974;28;20193;-72
2022/03/02 10:58:13;;;;;;;8.85;5.55;;;11.70;56.00;;;;;;4983016;28;20270;-73
2022/03/02 11:00:40;;;;;;;5.35;4.85;;;11.60;56.00;;;;;;4983000;28;20260;-72
2022/03/02 11:03:07;;;;;;;5.15;4.53;;;11.50;55.60;;;;;;4982220;28;20198;-73
2022/03/02 11:05:35;;;;;;;7.35;5.60;;;11.30;56.20;;;;;;4966574;28;20193;-73
2022/03/02 11:08:01;;;;;;;9.35;5.28;;;11.30;56.60;;;;;;4981828;28;20915;-72
2022/03/02 11:10:40;;;;;;;6.60;5.88;;;11.40;56.40;;;;;;4982191;28;20194;-72
2022/03/02 11:13:11;;;;;;;6.90;5.32;;;11.10;56.10;;;;;;4965355;28;20585;-73
2022/03/02 11:15:58;;;;;;;6.35;5.55;;;10.60;56.50;;;;;;4965219;28;20371;-73
2022/03/02 11:18:48;;;;;;;5.75;4.38;;;10.00;56.90;;;;;;4982755;28;20349;-74
2022/03/02 11:21:17;;;;;;;6.53;5.32;;;9.60;57.90;;;;;;4965313;28;20685;-74
2022/03/02 11:23:57;;;;;;;6.37;5.77;;;9.70;58.90;;;;;;4965684;28;20292;-73
2022/03/02 11:26:31;;;;;;;7.13;5.33;;;9.80;58.70;;;;;;4981728;28;20197;-72
2022/03/02 11:29:10;;;;;;;5.60;4.65;;;10.00;57.90;;;;;;4995252;28;20311;-73
2022/03/02 11:31:47;;;;;;;7.03;5.47;;;10.10;57.20;;;;;;4992860;28;20572;-72
2022/03/02 11:34:18;;;;;;;4.80;4.37;;;10.00;57.40;;;;;;4997338;28;20200;-72
2022/03/02 11:36:48;;;;;;;6.95;5.38;;;10.20;57.90;;;;;;4995510;28;20185;-72
2022/03/02 11:39:15;;;;;;;6.37;5.30;;;10.80;57.30;;;;;;4989407;28;20660;-73
2022/03/02 11:41:43;;;;;;;5.40;4.90;;;11.20;56.50;;;;;;4996275;28;20565;-72
2022/03/02 11:44:29;;;;;;;7.85;5.63;;;11.50;54.90;;;;;;4990007;28;20191;-73
2022/03/02 11:47:00;;;;;;;7.25;5.35;;;11.60;55.10;;;;;;4991844;28;20743;-73
2022/03/02 11:49:43;;;;;;;6.22;5.20;;;11.70;55.40;;;;;;4995991;28;20710;-72
2022/03/02 11:52:30;;;;;;;8.27;5.75;;;12.20;55.00;;;;;;4993489;28;20189;-72
2022/03/02 11:55:08;;;;;;;6.68;5.97;;;12.20;53.90;;;;;;4995369;28;20228;-73
2022/03/02 11:57:46;;;;;;;8.80;5.65;;;12.00;53.70;;;;;;4996671;28;20232;-73
2022/03/02 12:00:20;;;;;;;5.68;4.85;;;11.70;54.00;;;;;;4993980;28;20181;-73
2022/03/02 12:02:53;;;;;;;8.63;5.45;;;11.30;53.50;;;;;;4997205;28;20346;-73
2022/03/02 12:05:22;;;;;;;11.23;5.45;;;11.10;54.10;;;;;;4995973;28;20184;-73
2022/03/02 12:08:02;;;;;;;5.10;4.40;;;11.00;54.10;;;;;;4991472;28;20181;-73
2022/03/02 12:10:30;;;;;;;4.63;4.20;;;10.40;54.50;;;;;;4992539;28;20264;-73
2022/03/02 12:12:57;;;;;;;4.95;4.53;;;10.10;54.60;;;;;;4996906;28;20185;-73
2022/03/02 12:15:24;;;;;;;4.57;4.18;;;9.60;55.00;;;;;;4993645;28;20181;-72
2022/03/02 12:17:53;;;;;;;5.28;4.30;;;9.00;56.00;;;;;;4992899;28;20193;-73
2022/03/02 12:20:22;;;;;;;7.33;4.90;;;8.40;57.20;;;;;;4992324;28;20240;-72
2022/03/02 12:22:51;;;;;;;7.57;4.23;;;8.20;58.50;;;;;;4995586;28;20187;-74
2022/03/02 12:25:20;;;;;;;13.43;5.20;;;8.00;58.70;;;;;;4993046;28;20181;-73
2022/03/02 12:28:00;;;;;;;6.40;4.20;;;8.40;59.50;;;;;;4993978;28;20297;-73
2022/03/02 12:30:33;;;;;;;5.33;3.97;;;9.20;58.50;;;;;;4992518;28;20185;-73
2022/03/02 12:33:00;;;;;;;4.00;3.70;;;9.90;56.90;;;;;;4992451;28;20731;-72
2022/03/02 12:35:27;;;;;;;4.30;3.90;;;10.20;55.40;;;;;;4995497;28;20667;-73
2022/03/02 12:37:56;;;;;;;4.63;3.33;;;10.50;54.40;;;;;;4992786;28;20267;-73
2022/03/02 12:40:26;;;;;;;3.70;3.40;;;10.60;53.30;;;;;;4993929;28;20182;-73
2022/03/02 12:42:52;;;;;;;4.00;3.70;;;10.40;53.70;;;;;;4997100;28;20238;-72
2022/03/02 12:45:20;;;;;;;5.60;4.30;;;10.50;54.10;;;;;;4996460;28;20193;-73
2022/03/02 12:47:46;;;;;;;5.88;4.63;;;10.60;54.40;;;;;;4997984;28;20714;-73
2022/03/02 12:50:15;;;;;;;6.83;4.27;;;10.50;53.70;;;;;;4999602;28;20212;-72
2022/03/02 12:52:41;;;;;;;4.30;3.85;;;10.20;54.00;;;;;;4995040;28;20272;-72
2022/03/02 12:55:09;;;;;;;4.75;4.28;;;9.90;55.10;;;;;;4993347;28;20181;-72
2022/03/02 12:57:38;;;;;;;4.22;3.92;;;9.60;55.10;;;;;;4998810;28;20844;-72
2022/03/02 13:00:11;;;;;;;4.60;4.20;;;8.90;55.50;;;;;;4994416;28;20197;-72